• Join FlightAware (Why Join?)
  • Login
  • US Flag 
12:58AM EST


 

Airport Tracker/Info


-or-


 

Live Flight TrackerFlight Track Log ✈ RPA3161 ✈ 07-May-2013 ✈ KBTV - KDCA

Flight Track Log - Related Links

Times and Time Zones

All times are in EDT time to prevent confusion due to time zone crossing. See the RPA3161 flight status page for this flight to view local times or setup timezone preferences in your user account.

Time Position Orientation Groundspeed Altitude Reporting Facility
EDT Latitude Longitude Course Direction KTS MPH feet Rate Location/Type
12:33PM 44.3156 -73.1394 195° South 268 308 7,500  Level Boston Center
12:34PM 44.2422 -73.1703 197° South 273 314 10,300 2,450 Climbing Boston Center
12:35PM 44.1689 -73.2331 212° Southwest 291 335 12,400 2,200 Climbing Boston Center
12:36PM 44.0936 -73.3014 213° Southwest 322 371 14,700 2,350 Climbing Boston Center
12:37PM 43.8917 -73.3594 195° South  Level FlightAware Approximate
12:37PM 44.0158 -73.3725 213° Southwest 332 382 17,100  Level Boston Center
12:38PM 43.7958 -73.3954 195° South  Level FlightAware Approximate
12:38PM 43.9361 -73.4461 214° Southwest 337 388 18,900  Level Boston Center
12:39PM 43.8544 -73.4908 202° Southwest 350 403 20,600 1,700 Climbing Boston Center
12:40PM 43.7561 -73.5236 194° South 357 411 22,300 1,600 Climbing Boston Center
12:41PM 43.6369 -73.5561 191° South 378 435 23,800 1,550 Climbing Boston Center
12:42PM 43.5283 -73.5856 191° South 389 448 25,400 1,500 Climbing Boston Center
12:43PM 43.4197 -73.6150 191° South 394 453 26,800 1,361 Climbing Boston Center
12:44PM 43.3089 -73.6500 193° South 405 466 28,100 600 Climbing Boston Center
12:45PM 43.1961 -73.6817 192° South 411 473 28,000 -50 Descending Boston Center
12:46PM 43.0831 -73.7108 191° South 411 473 28,000  Level Boston Center
12:47PM 42.9703 -73.7453 193° South 411 473 28,000  Level Boston Center
12:48PM 42.8742 -73.7717 191° South 411 473 28,000  Level Boston Center
12:49PM 42.7592 -73.8031 191° South 411 473 28,000  Level Boston Center
12:50PM 42.6444 -73.7950 177° South 411 473 28,000  Level Boston Center
12:51PM 42.5383 -73.7786 174° South 399 459 28,000  Level Boston Center
12:52PM 42.4261 -73.7592 173° South 404 465 28,000  Level Boston Center
12:53PM 42.3136 -73.7428 174° South 404 465 28,000  Level Boston Center
12:54PM 42.1889 -73.7233 173° South 404 465 28,000  Level Boston Center
12:55PM 42.0822 -73.7575 193° South 392 451 28,000  Level Boston Center
12:57PM 41.8708 -73.8603 200° South 407 468 28,000  Level New York Center
12:58PM 41.7675 -73.9108 200° South 407 468 28,000  Level New York Center
12:59PM 41.6619 -73.9669 202° Southwest 407 468 28,000  Level New York Center
01:00PM 41.5731 -74.0128 201° Southwest 407 468 28,000  Level New York Center
01:01PM 41.4719 -74.0631 200° South 401 461 28,000  Level New York Center
01:02PM 41.3619 -74.1158 200° South 401 461 28,000  Level New York Center
01:03PM 41.2606 -74.1686 201° Southwest 401 461 28,000  Level New York Center
01:04PM 41.1464 -74.2236 200° South 401 461 28,000  Level New York Center
01:05PM 41.0428 -74.2758 201° Southwest 401 461 28,000  Level New York Center
01:06PM 40.9394 -74.3256 200° South 401 461 28,000 -51 Level New York Center
01:07PM 40.8533 -74.4169 219° Southwest 396 456 27,900  Descending New York Center
01:08PM 40.7769 -74.5253 227° Southwest 396 456 28,000 50 Climbing New York Center
01:09PM 40.6986 -74.6278 225° Southwest 401 461 28,000 -295 Level New York Center
01:10PM 40.6222 -74.7356 227° Southwest 406 467 27,400 -738 Descending New York Center
01:11PM 40.5433 -74.8431 226° Southwest 411 473 26,500 -992 Descending New York Center
01:12PM 40.4689 -74.9478 227° Southwest 406 467 25,400 -1,068 Descending New York Center
01:13PM 40.3947 -75.0414 224° Southwest 395 455 24,400 -1,017 Descending New York Center
01:14PM 40.3244 -75.1403 227° Southwest 387 445 23,400 -1,000 Descending New York Center
01:15PM 40.2586 -75.2261 225° Southwest 376 433 22,400 -992 Descending New York Center
01:16PM 40.1883 -75.3194 225° Southwest 376 433 21,400 -992 Descending New York Center
01:17PM 40.1203 -75.4125 226° Southwest 369 425 20,400 -694 Descending New York Center
01:18PM 40.0500 -75.5028 225° Southwest 364 419 20,000 -202 Descending New York Center
01:19PM 39.9817 -75.5931 225° Southwest 359 413 20,000  Level New York Center
01:20PM 39.9153 -75.6858 227° Southwest 359 413 20,000  Level New York Center
01:21PM 39.8528 -75.7842 230° Southwest 359 413 20,000  Level New York Center
01:22PM 39.7900 -75.8825 230° Southwest 354 407 20,000  Level New York Center
01:23PM 39.7275 -75.9806 230° Southwest 359 413 20,000 -885 Level New York Center
01:24PM 39.6600 -76.0889 231° Southwest 359 413 18,200 -1,672 Descending New York Center
01:25PM 39.6039 -76.1761 230° Southwest 358 412 16,600 -1,861 Descending New York Center
01:27PM 39.4667 -76.3833 229° Southwest 331 381 12,400 -1,572 Descending Potomac TRACON
01:28PM 39.4000 -76.4667 224° Southwest 316 364 11,700 -789 Descending Potomac TRACON
01:29PM 39.3333 -76.5167 210° Southwest 315 362 10,900 -567 Descending Potomac TRACON
01:31PM 39.1960 -76.6266 212° Southwest  Level FlightAware Approximate
01:31PM 39.1833 -76.6500 212° Southwest 288 331 10,000  Level Potomac TRACON
01:32PM 39.1333 -76.7167 226° Southwest 290 334 10,000 -150 Level Potomac TRACON
01:33PM 39.0667 -76.7833 218° Southwest 285 328 9,700 -1,000 Descending Potomac TRACON
01:34PM 39.0167 -76.8500 226° Southwest 277 319 8,000 -1,750 Descending Potomac TRACON
01:35PM 38.9500 -76.9167 218° Southwest 269 310 6,200 -1,133 Descending Potomac TRACON
01:37PM 38.8500 -76.9500 195° South 212 244 4,600 -933 Descending Potomac TRACON
01:38PM 38.7833 -76.9500 180° South 205 236 3,400 -1,300 Descending Potomac TRACON
01:39PM 38.7333 -76.9333 165° South 202 232 2,000 -900 Descending Potomac TRACON
01:40PM 38.7000 -77.0000 237° Southwest 245 282 1,600 -150 Descending Potomac TRACON
01:41PM 38.7500 -77.0333 333° Northwest 193 222 1,700 -300 Climbing Potomac TRACON
01:42PM 38.8000 -77.0333 360° North 153 176 1,000 -700 Descending Potomac TRACON